Terminal Aerodrome Forecast
Issued by NWS

Home | Current Version | Previous Version | Text Only | Print | Product List | Glossary On
Versions: 1 2 3 4 5 6 7 8 9 10 11 12 13 14 15 16 17 18 19 20 21 22 23 24 25 26 27
000
FTUS42 KRAH 210107 AAA
TAFINT
TAF AMD
KINT 210107Z 2101/2124 VRB03KT P6SM BKN025 OVC050
      TEMPO 2102/2106 SCT025 OVC050
     FM210600 00000KT 6SM BR BKN035
      TEMPO 2109/2112 1SM BR BKN015
     FM211400 06004KT P6SM BKN040=

USA.gov is the U.S. government's official web portal to all federal, state and local government web resources and services.